sensor_id;sensor_type;location;lat;lon;timestamp;temperature;humidity
12911;DHT22;6523;49.758;6.120;2023-06-19T00:00:50;17.70;99.90
12911;DHT22;6523;49.758;6.120;2023-06-19T00:03:16;17.80;99.90
12911;DHT22;6523;49.758;6.120;2023-06-19T00:05:42;17.80;99.90
12911;DHT22;6523;49.758;6.120;2023-06-19T00:08:07;17.70;99.90
12911;DHT22;6523;49.758;6.120;2023-06-19T00:10:33;17.70;99.90
12911;DHT22;6523;49.758;6.120;2023-06-19T00:12:59;17.50;99.90
12911;DHT22;6523;49.758;6.120;2023-06-19T00:15:24;17.50;99.90
12911;DHT22;6523;49.758;6.120;2023-06-19T00:17:50;17.50;99.90
12911;DHT22;6523;49.758;6.120;2023-06-19T00:20:15;17.60;99.90
12911;DHT22;6523;49.758;6.120;2023-06-19T00:22:41;17.50;99.90
12911;DHT22;6523;49.758;6.120;2023-06-19T00:25:07;17.50;99.90
12911;DHT22;6523;49.758;6.120;2023-06-19T00:27:33;17.40;99.90
12911;DHT22;6523;49.758;6.120;2023-06-19T00:29:58;17.30;99.90
12911;DHT22;6523;49.758;6.120;2023-06-19T00:32:30;17.30;99.90
12911;DHT22;6523;49.758;6.120;2023-06-19T00:34:56;17.20;99.90
12911;DHT22;6523;49.758;6.120;2023-06-19T00:37:22;17.10;99.90
12911;DHT22;6523;49.758;6.120;2023-06-19T00:39:47;17.10;99.90
12911;DHT22;6523;49.758;6.120;2023-06-19T00:42:13;17.10;99.90
12911;DHT22;6523;49.758;6.120;2023-06-19T00:44:39;17.10;99.90
12911;DHT22;6523;49.758;6.120;2023-06-19T00:47:05;17.00;99.90
12911;DHT22;6523;49.758;6.120;2023-06-19T00:49:31;17.00;99.90
12911;DHT22;6523;49.758;6.120;2023-06-19T00:51:57;16.90;99.90
12911;DHT22;6523;49.758;6.120;2023-06-19T00:54:23;17.10;99.90
12911;DHT22;6523;49.758;6.120;2023-06-19T00:56:49;17.00;99.90
12911;DHT22;6523;49.758;6.120;2023-06-19T00:59:17;16.90;99.90
12911;DHT22;6523;49.758;6.120;2023-06-19T01:01:46;16.80;99.90
12911;DHT22;6523;49.758;6.120;2023-06-19T01:04:12;16.90;99.90
12911;DHT22;6523;49.758;6.120;2023-06-19T01:06:46;16.80;99.90
12911;DHT22;6523;49.758;6.120;2023-06-19T01:09:16;16.70;99.90
12911;DHT22;6523;49.758;6.120;2023-06-19T01:11:48;16.60;99.90
12911;DHT22;6523;49.758;6.120;2023-06-19T01:14:22;16.60;99.90
12911;DHT22;6523;49.758;6.120;2023-06-19T01:16:49;16.70;99.90
12911;DHT22;6523;49.758;6.120;2023-06-19T01:19:18;16.60;99.90
12911;DHT22;6523;49.758;6.120;2023-06-19T01:21:45;16.50;99.90
12911;DHT22;6523;49.758;6.120;2023-06-19T01:24:12;16.40;99.90
12911;DHT22;6523;49.758;6.120;2023-06-19T01:26:37;16.40;99.90
12911;DHT22;6523;49.758;6.120;2023-06-19T01:29:03;16.30;99.90
12911;DHT22;6523;49.758;6.120;2023-06-19T01:34:17;16.30;99.90
12911;DHT22;6523;49.758;6.120;2023-06-19T01:36:46;16.30;99.90
12911;DHT22;6523;49.758;6.120;2023-06-19T01:39:14;16.30;99.90
12911;DHT22;6523;49.758;6.120;2023-06-19T01:41:40;16.40;99.90
12911;DHT22;6523;49.758;6.120;2023-06-19T01:44:08;16.50;99.90
12911;DHT22;6523;49.758;6.120;2023-06-19T01:46:34;16.50;99.90
12911;DHT22;6523;49.758;6.120;2023-06-19T01:48:59;16.60;99.90
12911;DHT22;6523;49.758;6.120;2023-06-19T01:51:25;16.60;99.90
12911;DHT22;6523;49.758;6.120;2023-06-19T01:53:51;16.60;99.90
12911;DHT22;6523;49.758;6.120;2023-06-19T01:56:16;16.30;99.90
12911;DHT22;6523;49.758;6.120;2023-06-19T01:58:42;16.50;99.90
12911;DHT22;6523;49.758;6.120;2023-06-19T02:01:07;16.50;99.90
12911;DHT22;6523;49.758;6.120;2023-06-19T02:03:33;16.60;99.90
12911;DHT22;6523;49.758;6.120;2023-06-19T02:05:58;16.60;99.90
12911;DHT22;6523;49.758;6.120;2023-06-19T02:08:24;16.60;99.90
12911;DHT22;6523;49.758;6.120;2023-06-19T02:10:50;16.60;99.90
12911;DHT22;6523;49.758;6.120;2023-06-19T02:13:15;16.60;99.90
12911;DHT22;6523;49.758;6.120;2023-06-19T02:15:41;16.60;99.90
12911;DHT22;6523;49.758;6.120;2023-06-19T02:18:07;16.60;99.90
12911;DHT22;6523;49.758;6.120;2023-06-19T02:20:32;16.70;99.90
12911;DHT22;6523;49.758;6.120;2023-06-19T02:22:58;16.80;99.90
12911;DHT22;6523;49.758;6.120;2023-06-19T02:25:23;16.60;99.90
12911;DHT22;6523;49.758;6.120;2023-06-19T02:27:49;16.60;99.90
12911;DHT22;6523;49.758;6.120;2023-06-19T02:30:15;16.50;99.90
12911;DHT22;6523;49.758;6.120;2023-06-19T02:32:40;16.40;99.90
12911;DHT22;6523;49.758;6.120;2023-06-19T02:35:08;16.40;99.90
12911;DHT22;6523;49.758;6.120;2023-06-19T02:37:34;16.30;99.90
12911;DHT22;6523;49.758;6.120;2023-06-19T02:40:06;16.50;99.90
12911;DHT22;6523;49.758;6.120;2023-06-19T02:42:32;16.60;99.90
12911;DHT22;6523;49.758;6.120;2023-06-19T02:44:57;16.70;99.90
12911;DHT22;6523;49.758;6.120;2023-06-19T02:47:32;16.80;99.90
12911;DHT22;6523;49.758;6.120;2023-06-19T02:50:02;16.80;99.90
12911;DHT22;6523;49.758;6.120;2023-06-19T02:52:29;16.90;99.90
12911;DHT22;6523;49.758;6.120;2023-06-19T02:54:55;17.00;99.90
12911;DHT22;6523;49.758;6.120;2023-06-19T02:57:21;17.10;99.90
12911;DHT22;6523;49.758;6.120;2023-06-19T02:59:47;17.20;99.90
12911;DHT22;6523;49.758;6.120;2023-06-19T03:02:12;17.30;99.90
12911;DHT22;6523;49.758;6.120;2023-06-19T03:04:38;17.30;99.90
12911;DHT22;6523;49.758;6.120;2023-06-19T03:07:04;17.40;99.90
12911;DHT22;6523;49.758;6.120;2023-06-19T03:09:29;17.30;99.90
12911;DHT22;6523;49.758;6.120;2023-06-19T03:11:55;17.40;99.90
12911;DHT22;6523;49.758;6.120;2023-06-19T03:14:20;17.40;99.90
12911;DHT22;6523;49.758;6.120;2023-06-19T03:16:46;17.40;99.90
12911;DHT22;6523;49.758;6.120;2023-06-19T03:19:12;17.40;99.90
12911;DHT22;6523;49.758;6.120;2023-06-19T03:21:38;17.40;99.90
12911;DHT22;6523;49.758;6.120;2023-06-19T03:24:03;17.50;99.90
12911;DHT22;6523;49.758;6.120;2023-06-19T03:26:29;17.50;99.90
12911;DHT22;6523;49.758;6.120;2023-06-19T03:28:55;17.60;99.90
12911;DHT22;6523;49.758;6.120;2023-06-19T03:31:20;17.60;99.90
12911;DHT22;6523;49.758;6.120;2023-06-19T03:33:46;17.60;99.90
12911;DHT22;6523;49.758;6.120;2023-06-19T03:36:12;17.50;99.90
12911;DHT22;6523;49.758;6.120;2023-06-19T03:38:37;17.50;99.90
12911;DHT22;6523;49.758;6.120;2023-06-19T03:41:03;17.50;99.90
12911;DHT22;6523;49.758;6.120;2023-06-19T03:43:28;17.50;99.90
12911;DHT22;6523;49.758;6.120;2023-06-19T03:45:54;17.60;99.90
12911;DHT22;6523;49.758;6.120;2023-06-19T03:48:20;17.60;99.90
12911;DHT22;6523;49.758;6.120;2023-06-19T03:50:45;17.60;99.90
12911;DHT22;6523;49.758;6.120;2023-06-19T03:53:11;17.70;99.90
12911;DHT22;6523;49.758;6.120;2023-06-19T03:55:36;17.70;99.90
12911;DHT22;6523;49.758;6.120;2023-06-19T03:58:02;17.70;99.90
12911;DHT22;6523;49.758;6.120;2023-06-19T04:00:27;17.80;99.90
12911;DHT22;6523;49.758;6.120;2023-06-19T04:02:53;17.80;99.90
12911;DHT22;6523;49.758;6.120;2023-06-19T04:05:19;17.80;99.90
12911;DHT22;6523;49.758;6.120;2023-06-19T04:07:45;17.80;99.90
12911;DHT22;6523;49.758;6.120;2023-06-19T04:10:11;17.90;99.90
12911;DHT22;6523;49.758;6.120;2023-06-19T04:12:37;18.00;99.90
12911;DHT22;6523;49.758;6.120;2023-06-19T04:15:03;18.10;99.90
12911;DHT22;6523;49.758;6.120;2023-06-19T04:17:29;18.00;99.90
12911;DHT22;6523;49.758;6.120;2023-06-19T04:19:54;18.00;99.90
12911;DHT22;6523;49.758;6.120;2023-06-19T04:22:20;17.90;99.90
12911;DHT22;6523;49.758;6.120;2023-06-19T04:24:46;17.90;99.90
12911;DHT22;6523;49.758;6.120;2023-06-19T04:27:11;17.90;99.90
12911;DHT22;6523;49.758;6.120;2023-06-19T04:29:37;17.90;99.90
12911;DHT22;6523;49.758;6.120;2023-06-19T04:32:02;17.90;99.90
12911;DHT22;6523;49.758;6.120;2023-06-19T04:34:36;17.90;99.90
12911;DHT22;6523;49.758;6.120;2023-06-19T04:37:01;17.90;99.90
12911;DHT22;6523;49.758;6.120;2023-06-19T04:39:27;17.90;99.90
12911;DHT22;6523;49.758;6.120;2023-06-19T04:41:52;18.00;99.90
12911;DHT22;6523;49.758;6.120;2023-06-19T04:44:18;18.00;99.90
12911;DHT22;6523;49.758;6.120;2023-06-19T04:46:43;17.90;99.90
12911;DHT22;6523;49.758;6.120;2023-06-19T04:49:09;18.00;99.90
12911;DHT22;6523;49.758;6.120;2023-06-19T04:51:35;18.10;99.90
12911;DHT22;6523;49.758;6.120;2023-06-19T04:54:01;18.10;99.90
12911;DHT22;6523;49.758;6.120;2023-06-19T04:56:27;18.30;99.90
12911;DHT22;6523;49.758;6.120;2023-06-19T04:58:54;18.30;99.90
12911;DHT22;6523;49.758;6.120;2023-06-19T05:01:25;18.40;99.90
12911;DHT22;6523;49.758;6.120;2023-06-19T05:03:54;18.40;99.90
12911;DHT22;6523;49.758;6.120;2023-06-19T05:06:20;18.40;99.90
12911;DHT22;6523;49.758;6.120;2023-06-19T05:08:47;18.40;99.90
12911;DHT22;6523;49.758;6.120;2023-06-19T05:11:12;18.40;99.90
12911;DHT22;6523;49.758;6.120;2023-06-19T05:13:38;18.40;99.90
12911;DHT22;6523;49.758;6.120;2023-06-19T05:16:04;18.50;99.90
12911;DHT22;6523;49.758;6.120;2023-06-19T05:18:29;18.50;99.90
12911;DHT22;6523;49.758;6.120;2023-06-19T05:20:58;18.50;99.90
12911;DHT22;6523;49.758;6.120;2023-06-19T05:23:23;18.40;99.90
12911;DHT22;6523;49.758;6.120;2023-06-19T05:25:49;18.40;99.90
12911;DHT22;6523;49.758;6.120;2023-06-19T05:28:14;18.40;99.90
12911;DHT22;6523;49.758;6.120;2023-06-19T05:30:40;18.40;99.90
12911;DHT22;6523;49.758;6.120;2023-06-19T05:33:05;18.50;99.90
12911;DHT22;6523;49.758;6.120;2023-06-19T05:35:31;18.60;99.90
12911;DHT22;6523;49.758;6.120;2023-06-19T05:37:57;18.60;99.90
12911;DHT22;6523;49.758;6.120;2023-06-19T05:40:23;18.50;99.90
12911;DHT22;6523;49.758;6.120;2023-06-19T05:42:48;18.60;99.90
12911;DHT22;6523;49.758;6.120;2023-06-19T05:45:14;18.70;99.90
12911;DHT22;6523;49.758;6.120;2023-06-19T05:47:39;18.60;99.90
12911;DHT22;6523;49.758;6.120;2023-06-19T05:50:05;18.60;99.90
12911;DHT22;6523;49.758;6.120;2023-06-19T05:52:31;18.60;99.90
12911;DHT22;6523;49.758;6.120;2023-06-19T05:54:56;18.70;99.90
12911;DHT22;6523;49.758;6.120;2023-06-19T05:57:23;18.70;99.90
12911;DHT22;6523;49.758;6.120;2023-06-19T05:59:49;18.80;99.90
12911;DHT22;6523;49.758;6.120;2023-06-19T06:02:16;18.60;99.90
12911;DHT22;6523;49.758;6.120;2023-06-19T06:04:42;18.90;99.90
12911;DHT22;6523;49.758;6.120;2023-06-19T06:07:08;19.10;99.90
12911;DHT22;6523;49.758;6.120;2023-06-19T06:09:34;19.00;99.90
12911;DHT22;6523;49.758;6.120;2023-06-19T06:11:59;19.10;99.90
12911;DHT22;6523;49.758;6.120;2023-06-19T06:14:26;19.30;99.90
12911;DHT22;6523;49.758;6.120;2023-06-19T06:16:51;19.40;99.90
12911;DHT22;6523;49.758;6.120;2023-06-19T06:19:18;19.20;99.90
12911;DHT22;6523;49.758;6.120;2023-06-19T06:21:43;19.20;99.90
12911;DHT22;6523;49.758;6.120;2023-06-19T06:24:09;19.20;99.90
12911;DHT22;6523;49.758;6.120;2023-06-19T06:26:34;19.20;99.90
12911;DHT22;6523;49.758;6.120;2023-06-19T06:29:01;19.30;99.90
12911;DHT22;6523;49.758;6.120;2023-06-19T06:31:26;19.40;99.90
12911;DHT22;6523;49.758;6.120;2023-06-19T06:33:52;19.40;99.90
12911;DHT22;6523;49.758;6.120;2023-06-19T06:36:18;19.70;99.90
12911;DHT22;6523;49.758;6.120;2023-06-19T06:38:44;19.70;99.90
12911;DHT22;6523;49.758;6.120;2023-06-19T06:41:09;19.70;99.90
12911;DHT22;6523;49.758;6.120;2023-06-19T06:43:35;20.00;99.90
12911;DHT22;6523;49.758;6.120;2023-06-19T06:46:00;20.00;99.90
12911;DHT22;6523;49.758;6.120;2023-06-19T06:48:26;20.00;99.90
12911;DHT22;6523;49.758;6.120;2023-06-19T06:50:51;19.80;99.90
12911;DHT22;6523;49.758;6.120;2023-06-19T06:53:26;19.80;99.90
12911;DHT22;6523;49.758;6.120;2023-06-19T06:55:53;19.80;99.90
12911;DHT22;6523;49.758;6.120;2023-06-19T06:58:19;19.70;99.90
12911;DHT22;6523;49.758;6.120;2023-06-19T07:00:45;19.70;99.90
12911;DHT22;6523;49.758;6.120;2023-06-19T07:03:11;19.80;99.90
12911;DHT22;6523;49.758;6.120;2023-06-19T07:05:36;19.90;99.90
12911;DHT22;6523;49.758;6.120;2023-06-19T07:08:02;20.00;99.90
12911;DHT22;6523;49.758;6.120;2023-06-19T07:10:29;20.00;99.90
12911;DHT22;6523;49.758;6.120;2023-06-19T07:12:55;19.70;99.90
12911;DHT22;6523;49.758;6.120;2023-06-19T07:15:20;19.60;99.90
12911;DHT22;6523;49.758;6.120;2023-06-19T07:17:46;19.70;99.90
12911;DHT22;6523;49.758;6.120;2023-06-19T07:20:12;20.10;99.90
12911;DHT22;6523;49.758;6.120;2023-06-19T07:22:37;20.30;99.90
12911;DHT22;6523;49.758;6.120;2023-06-19T07:25:04;20.00;99.90
12911;DHT22;6523;49.758;6.120;2023-06-19T07:27:30;20.10;99.90
12911;DHT22;6523;49.758;6.120;2023-06-19T07:29:55;20.10;99.90
12911;DHT22;6523;49.758;6.120;2023-06-19T07:32:21;20.10;99.90
12911;DHT22;6523;49.758;6.120;2023-06-19T07:34:46;20.10;99.90
12911;DHT22;6523;49.758;6.120;2023-06-19T07:37:12;20.20;99.90
12911;DHT22;6523;49.758;6.120;2023-06-19T07:39:50;20.10;99.90
12911;DHT22;6523;49.758;6.120;2023-06-19T07:42:17;20.30;99.90
12911;DHT22;6523;49.758;6.120;2023-06-19T07:44:43;20.70;99.90
12911;DHT22;6523;49.758;6.120;2023-06-19T07:47:09;20.60;99.90
12911;DHT22;6523;49.758;6.120;2023-06-19T07:49:35;20.60;99.90
12911;DHT22;6523;49.758;6.120;2023-06-19T07:52:01;20.90;99.90
12911;DHT22;6523;49.758;6.120;2023-06-19T07:54:27;20.80;99.90
12911;DHT22;6523;49.758;6.120;2023-06-19T07:56:52;20.60;99.90
12911;DHT22;6523;49.758;6.120;2023-06-19T07:59:18;20.50;99.90
12911;DHT22;6523;49.758;6.120;2023-06-19T08:01:44;20.70;99.90
12911;DHT22;6523;49.758;6.120;2023-06-19T08:04:10;20.90;99.90
12911;DHT22;6523;49.758;6.120;2023-06-19T08:06:35;21.10;99.90
12911;DHT22;6523;49.758;6.120;2023-06-19T08:09:01;21.40;99.90
12911;DHT22;6523;49.758;6.120;2023-06-19T08:11:27;21.70;99.90
12911;DHT22;6523;49.758;6.120;2023-06-19T08:13:53;21.20;99.90
12911;DHT22;6523;49.758;6.120;2023-06-19T08:16:18;21.20;99.90
12911;DHT22;6523;49.758;6.120;2023-06-19T08:18:44;21.00;99.90
12911;DHT22;6523;49.758;6.120;2023-06-19T08:21:10;21.10;99.90
12911;DHT22;6523;49.758;6.120;2023-06-19T08:23:36;21.10;99.90
12911;DHT22;6523;49.758;6.120;2023-06-19T08:26:04;21.00;99.90
12911;DHT22;6523;49.758;6.120;2023-06-19T08:28:31;21.40;99.90
12911;DHT22;6523;49.758;6.120;2023-06-19T08:30:57;21.30;99.90
12911;DHT22;6523;49.758;6.120;2023-06-19T08:33:23;21.20;99.90
12911;DHT22;6523;49.758;6.120;2023-06-19T08:35:49;21.30;99.90
12911;DHT22;6523;49.758;6.120;2023-06-19T08:38:14;21.10;99.90
12911;DHT22;6523;49.758;6.120;2023-06-19T08:40:43;21.60;99.90
12911;DHT22;6523;49.758;6.120;2023-06-19T08:43:09;21.80;99.90
12911;DHT22;6523;49.758;6.120;2023-06-19T08:45:35;22.30;99.90
12911;DHT22;6523;49.758;6.120;2023-06-19T08:48:01;22.90;99.90
12911;DHT22;6523;49.758;6.120;2023-06-19T08:50:31;22.50;99.90
12911;DHT22;6523;49.758;6.120;2023-06-19T08:52:57;22.90;99.90
12911;DHT22;6523;49.758;6.120;2023-06-19T08:55:23;22.60;99.90
12911;DHT22;6523;49.758;6.120;2023-06-19T08:57:49;22.40;99.90
12911;DHT22;6523;49.758;6.120;2023-06-19T09:00:26;22.60;99.90
12911;DHT22;6523;49.758;6.120;2023-06-19T09:02:52;23.30;99.90
12911;DHT22;6523;49.758;6.120;2023-06-19T09:05:23;23.40;99.90
12911;DHT22;6523;49.758;6.120;2023-06-19T09:07:57;22.90;99.90
12911;DHT22;6523;49.758;6.120;2023-06-19T09:10:23;23.10;99.90
12911;DHT22;6523;49.758;6.120;2023-06-19T09:13:03;22.80;99.90
12911;DHT22;6523;49.758;6.120;2023-06-19T09:15:31;22.20;99.90
12911;DHT22;6523;49.758;6.120;2023-06-19T09:18:08;22.60;99.90
12911;DHT22;6523;49.758;6.120;2023-06-19T09:20:41;22.40;99.90
12911;DHT22;6523;49.758;6.120;2023-06-19T09:23:10;22.60;99.90
12911;DHT22;6523;49.758;6.120;2023-06-19T09:25:53;22.80;99.90
12911;DHT22;6523;49.758;6.120;2023-06-19T09:28:21;22.90;99.90
12911;DHT22;6523;49.758;6.120;2023-06-19T09:31:02;22.50;99.90
12911;DHT22;6523;49.758;6.120;2023-06-19T09:33:31;22.40;99.90
12911;DHT22;6523;49.758;6.120;2023-06-19T09:35:59;23.00;99.90
12911;DHT22;6523;49.758;6.120;2023-06-19T09:38:29;22.90;99.90
12911;DHT22;6523;49.758;6.120;2023-06-19T09:40:57;23.00;99.90
12911;DHT22;6523;49.758;6.120;2023-06-19T09:43:26;23.40;99.90
12911;DHT22;6523;49.758;6.120;2023-06-19T09:45:55;23.50;99.90
12911;DHT22;6523;49.758;6.120;2023-06-19T09:48:27;23.40;99.90
12911;DHT22;6523;49.758;6.120;2023-06-19T09:50:59;23.40;99.90
12911;DHT22;6523;49.758;6.120;2023-06-19T09:53:25;23.00;99.90
12911;DHT22;6523;49.758;6.120;2023-06-19T09:55:51;22.80;99.90
12911;DHT22;6523;49.758;6.120;2023-06-19T09:58:19;22.50;99.90
12911;DHT22;6523;49.758;6.120;2023-06-19T10:00:46;23.10;99.90
12911;DHT22;6523;49.758;6.120;2023-06-19T10:03:13;23.60;99.90
12911;DHT22;6523;49.758;6.120;2023-06-19T10:05:39;24.10;99.90
12911;DHT22;6523;49.758;6.120;2023-06-19T10:08:06;24.60;99.90
12911;DHT22;6523;49.758;6.120;2023-06-19T10:10:32;24.60;99.90
12911;DHT22;6523;49.758;6.120;2023-06-19T10:13:13;24.50;99.90
12911;DHT22;6523;49.758;6.120;2023-06-19T10:15:43;24.60;99.90
12911;DHT22;6523;49.758;6.120;2023-06-19T10:18:17;24.30;99.90
12911;DHT22;6523;49.758;6.120;2023-06-19T10:20:44;23.30;99.90
12911;DHT22;6523;49.758;6.120;2023-06-19T10:23:18;23.60;99.90
12911;DHT22;6523;49.758;6.120;2023-06-19T10:25:54;24.20;99.90
12911;DHT22;6523;49.758;6.120;2023-06-19T10:28:28;25.60;99.90
12911;DHT22;6523;49.758;6.120;2023-06-19T10:30:56;25.90;99.90
12911;DHT22;6523;49.758;6.120;2023-06-19T10:33:27;25.90;99.90
12911;DHT22;6523;49.758;6.120;2023-06-19T10:35:53;26.20;99.90
12911;DHT22;6523;49.758;6.120;2023-06-19T10:38:19;26.10;99.90
12911;DHT22;6523;49.758;6.120;2023-06-19T10:40:45;25.60;99.90
12911;DHT22;6523;49.758;6.120;2023-06-19T10:43:12;25.10;99.90
12911;DHT22;6523;49.758;6.120;2023-06-19T10:45:37;25.00;99.90
12911;DHT22;6523;49.758;6.120;2023-06-19T10:48:04;25.90;99.90
12911;DHT22;6523;49.758;6.120;2023-06-19T10:50:34;25.90;99.90
12911;DHT22;6523;49.758;6.120;2023-06-19T10:53:00;25.50;99.90
12911;DHT22;6523;49.758;6.120;2023-06-19T10:55:26;25.60;99.90
12911;DHT22;6523;49.758;6.120;2023-06-19T10:57:52;25.70;99.90
12911;DHT22;6523;49.758;6.120;2023-06-19T11:00:28;26.10;99.90
12911;DHT22;6523;49.758;6.120;2023-06-19T11:02:55;25.40;99.90
12911;DHT22;6523;49.758;6.120;2023-06-19T11:05:25;25.00;99.90
12911;DHT22;6523;49.758;6.120;2023-06-19T11:07:55;25.40;99.90
12911;DHT22;6523;49.758;6.120;2023-06-19T11:10:23;24.90;99.90
12911;DHT22;6523;49.758;6.120;2023-06-19T11:12:53;24.40;99.90
12911;DHT22;6523;49.758;6.120;2023-06-19T11:15:19;24.60;99.90
12911;DHT22;6523;49.758;6.120;2023-06-19T11:17:44;25.00;99.90
12911;DHT22;6523;49.758;6.120;2023-06-19T11:20:13;25.00;99.90
12911;DHT22;6523;49.758;6.120;2023-06-19T11:22:40;24.60;99.90
12911;DHT22;6523;49.758;6.120;2023-06-19T11:25:07;24.80;99.90
12911;DHT22;6523;49.758;6.120;2023-06-19T11:27:33;25.10;99.90
12911;DHT22;6523;49.758;6.120;2023-06-19T11:30:00;25.00;99.90
12911;DHT22;6523;49.758;6.120;2023-06-19T11:32:37;25.20;99.90
12911;DHT22;6523;49.758;6.120;2023-06-19T11:35:09;25.50;99.90
12911;DHT22;6523;49.758;6.120;2023-06-19T11:37:34;25.70;99.90
12911;DHT22;6523;49.758;6.120;2023-06-19T11:40:01;26.20;99.90
12911;DHT22;6523;49.758;6.120;2023-06-19T11:42:29;26.40;99.90
12911;DHT22;6523;49.758;6.120;2023-06-19T11:44:56;26.40;99.90
12911;DHT22;6523;49.758;6.120;2023-06-19T11:47:22;26.20;99.90
12911;DHT22;6523;49.758;6.120;2023-06-19T11:49:50;26.50;99.90
12911;DHT22;6523;49.758;6.120;2023-06-19T11:52:16;26.10;98.40
12911;DHT22;6523;49.758;6.120;2023-06-19T11:54:42;25.80;97.50
12911;DHT22;6523;49.758;6.120;2023-06-19T11:57:09;26.50;98.50
12911;DHT22;6523;49.758;6.120;2023-06-19T11:59:38;26.90;92.30
12911;DHT22;6523;49.758;6.120;2023-06-19T12:02:04;26.10;88.30
12911;DHT22;6523;49.758;6.120;2023-06-19T12:04:30;26.80;81.70
12911;DHT22;6523;49.758;6.120;2023-06-19T12:06:55;27.30;64.30
12911;DHT22;6523;49.758;6.120;2023-06-19T12:09:21;26.70;70.80
12911;DHT22;6523;49.758;6.120;2023-06-19T12:11:47;27.20;75.30
12911;DHT22;6523;49.758;6.120;2023-06-19T12:14:12;27.20;69.40
12911;DHT22;6523;49.758;6.120;2023-06-19T12:16:38;26.80;61.10
12911;DHT22;6523;49.758;6.120;2023-06-19T12:19:04;26.60;62.70
12911;DHT22;6523;49.758;6.120;2023-06-19T12:21:29;26.20;59.10
12911;DHT22;6523;49.758;6.120;2023-06-19T12:23:55;25.80;61.10
12911;DHT22;6523;49.758;6.120;2023-06-19T12:26:21;25.90;72.40
12911;DHT22;6523;49.758;6.120;2023-06-19T12:28:46;26.90;59.70
12911;DHT22;6523;49.758;6.120;2023-06-19T12:31:12;27.10;42.30
12911;DHT22;6523;49.758;6.120;2023-06-19T12:33:37;27.60;42.70
12911;DHT22;6523;49.758;6.120;2023-06-19T12:36:10;28.20;25.30
12911;DHT22;6523;49.758;6.120;2023-06-19T12:38:35;27.60;30.00
12911;DHT22;6523;49.758;6.120;2023-06-19T12:41:04;29.00;34.80
12911;DHT22;6523;49.758;6.120;2023-06-19T12:43:29;30.80;34.00
12911;DHT22;6523;49.758;6.120;2023-06-19T12:45:57;30.40;17.80
12911;DHT22;6523;49.758;6.120;2023-06-19T12:48:25;30.00;17.50
12911;DHT22;6523;49.758;6.120;2023-06-19T12:50:50;29.50;25.30
12911;DHT22;6523;49.758;6.120;2023-06-19T12:53:16;29.00;20.30
12911;DHT22;6523;49.758;6.120;2023-06-19T12:55:41;29.90;20.30
12911;DHT22;6523;49.758;6.120;2023-06-19T12:58:08;28.70;13.20
12911;DHT22;6523;49.758;6.120;2023-06-19T13:00:34;28.10;18.30
12911;DHT22;6523;49.758;6.120;2023-06-19T13:03:00;28.20;17.50
12911;DHT22;6523;49.758;6.120;2023-06-19T13:05:25;28.00;16.10
12911;DHT22;6523;49.758;6.120;2023-06-19T13:07:51;28.20;12.60
12911;DHT22;6523;49.758;6.120;2023-06-19T13:10:16;29.20;11.00
12911;DHT22;6523;49.758;6.120;2023-06-19T13:12:42;29.20;11.60
12911;DHT22;6523;49.758;6.120;2023-06-19T13:15:08;29.20;1.00
12911;DHT22;6523;49.758;6.120;2023-06-19T13:17:33;28.60;1.00
12911;DHT22;6523;49.758;6.120;2023-06-19T13:19:59;28.50;1.00
12911;DHT22;6523;49.758;6.120;2023-06-19T13:22:25;29.20;1.00
12911;DHT22;6523;49.758;6.120;2023-06-19T13:24:51;28.70;1.00
12911;DHT22;6523;49.758;6.120;2023-06-19T13:27:17;28.10;1.00
12911;DHT22;6523;49.758;6.120;2023-06-19T13:29:42;28.60;1.00
12911;DHT22;6523;49.758;6.120;2023-06-19T13:32:08;28.50;1.00
12911;DHT22;6523;49.758;6.120;2023-06-19T13:34:34;28.70;1.00
12911;DHT22;6523;49.758;6.120;2023-06-19T13:36:59;28.60;1.00
12911;DHT22;6523;49.758;6.120;2023-06-19T13:39:25;28.50;1.00
12911;DHT22;6523;49.758;6.120;2023-06-19T13:41:51;28.20;1.00
12911;DHT22;6523;49.758;6.120;2023-06-19T13:44:16;28.10;1.00
12911;DHT22;6523;49.758;6.120;2023-06-19T13:46:42;28.30;1.00
12911;DHT22;6523;49.758;6.120;2023-06-19T13:49:08;27.90;1.00
12911;DHT22;6523;49.758;6.120;2023-06-19T13:51:33;28.20;1.00
12911;DHT22;6523;49.758;6.120;2023-06-19T13:53:59;28.90;1.00
12911;DHT22;6523;49.758;6.120;2023-06-19T13:56:24;28.30;1.00
12911;DHT22;6523;49.758;6.120;2023-06-19T13:58:50;28.40;1.00
12911;DHT22;6523;49.758;6.120;2023-06-19T14:01:16;29.00;1.00
12911;DHT22;6523;49.758;6.120;2023-06-19T14:03:41;29.30;1.00
12911;DHT22;6523;49.758;6.120;2023-06-19T14:06:08;29.20;1.00
12911;DHT22;6523;49.758;6.120;2023-06-19T14:08:33;29.10;1.00
12911;DHT22;6523;49.758;6.120;2023-06-19T14:10:59;29.90;1.00
12911;DHT22;6523;49.758;6.120;2023-06-19T14:13:24;30.00;1.00
12911;DHT22;6523;49.758;6.120;2023-06-19T14:15:50;29.20;1.00
12911;DHT22;6523;49.758;6.120;2023-06-19T14:18:16;28.70;1.00
12911;DHT22;6523;49.758;6.120;2023-06-19T14:20:42;28.40;1.00
12911;DHT22;6523;49.758;6.120;2023-06-19T14:23:08;29.90;1.00
12911;DHT22;6523;49.758;6.120;2023-06-19T14:25:34;29.60;1.00
12911;DHT22;6523;49.758;6.120;2023-06-19T14:28:00;29.00;1.00
12911;DHT22;6523;49.758;6.120;2023-06-19T14:30:25;29.10;1.00
12911;DHT22;6523;49.758;6.120;2023-06-19T14:32:51;29.60;1.00
12911;DHT22;6523;49.758;6.120;2023-06-19T14:35:16;30.00;1.00
12911;DHT22;6523;49.758;6.120;2023-06-19T14:37:42;30.30;1.00
12911;DHT22;6523;49.758;6.120;2023-06-19T14:40:08;29.30;1.00
12911;DHT22;6523;49.758;6.120;2023-06-19T14:42:34;29.20;1.00
12911;DHT22;6523;49.758;6.120;2023-06-19T14:45:00;29.40;1.00
12911;DHT22;6523;49.758;6.120;2023-06-19T14:47:27;29.60;1.00
12911;DHT22;6523;49.758;6.120;2023-06-19T14:49:52;30.20;1.00
12911;DHT22;6523;49.758;6.120;2023-06-19T14:52:19;30.80;1.00
12911;DHT22;6523;49.758;6.120;2023-06-19T14:54:45;30.30;1.00
12911;DHT22;6523;49.758;6.120;2023-06-19T14:57:11;29.70;1.00
12911;DHT22;6523;49.758;6.120;2023-06-19T14:59:36;29.50;1.00
12911;DHT22;6523;49.758;6.120;2023-06-19T15:02:02;29.70;1.00
12911;DHT22;6523;49.758;6.120;2023-06-19T15:04:28;30.00;1.00
12911;DHT22;6523;49.758;6.120;2023-06-19T15:06:54;30.00;1.00
12911;DHT22;6523;49.758;6.120;2023-06-19T15:09:19;30.90;1.00
12911;DHT22;6523;49.758;6.120;2023-06-19T15:11:45;29.70;1.00
12911;DHT22;6523;49.758;6.120;2023-06-19T15:14:10;29.70;1.00
12911;DHT22;6523;49.758;6.120;2023-06-19T15:16:36;29.60;1.00
12911;DHT22;6523;49.758;6.120;2023-06-19T15:19:01;29.30;1.00
12911;DHT22;6523;49.758;6.120;2023-06-19T15:21:27;29.10;1.00
12911;DHT22;6523;49.758;6.120;2023-06-19T15:23:53;29.20;1.00
12911;DHT22;6523;49.758;6.120;2023-06-19T15:26:20;29.50;1.00
12911;DHT22;6523;49.758;6.120;2023-06-19T15:28:46;29.60;1.00
12911;DHT22;6523;49.758;6.120;2023-06-19T15:31:13;29.90;1.00
12911;DHT22;6523;49.758;6.120;2023-06-19T15:33:38;29.70;1.00
12911;DHT22;6523;49.758;6.120;2023-06-19T15:36:04;29.20;1.00
12911;DHT22;6523;49.758;6.120;2023-06-19T15:38:30;29.40;1.00
12911;DHT22;6523;49.758;6.120;2023-06-19T15:40:56;29.30;1.00
12911;DHT22;6523;49.758;6.120;2023-06-19T15:43:21;29.60;1.00
12911;DHT22;6523;49.758;6.120;2023-06-19T15:45:57;29.70;1.00
12911;DHT22;6523;49.758;6.120;2023-06-19T15:48:23;29.30;1.00